createdAt,value
2018-05-07T00:01:06.115Z,217
2018-05-07T00:02:13.388Z,217
2018-05-07T00:03:20.655Z,216
2018-05-07T00:04:27.848Z,216
2018-05-07T00:05:35.059Z,216
2018-05-07T00:06:42.264Z,216
2018-05-07T00:07:49.470Z,216
2018-05-07T00:08:56.676Z,216
2018-05-07T00:10:03.879Z,216
2018-05-07T00:11:11.083Z,216
2018-05-07T00:12:18.025Z,216
2018-05-07T00:13:25.240Z,216
2018-05-07T00:14:32.475Z,216
2018-05-07T00:15:39.696Z,216
2018-05-07T00:16:46.641Z,216
2018-05-07T00:17:53.854Z,215
2018-05-07T00:19:01.056Z,215
2018-05-07T00:20:08.268Z,215
2018-05-07T00:21:15.470Z,215
2018-05-07T00:22:22.693Z,216
2018-05-07T00:23:29.887Z,215
2018-05-07T00:24:37.114Z,215
2018-05-07T00:25:44.303Z,215
2018-05-07T00:26:51.241Z,215
2018-05-07T00:27:58.446Z,215
2018-05-07T00:29:05.653Z,215
2018-05-07T00:30:12.870Z,215
2018-05-07T00:31:20.073Z,215
2018-05-07T00:32:27.283Z,215
2018-05-07T00:33:34.491Z,215
2018-05-07T00:34:41.697Z,215
2018-05-07T00:35:48.907Z,215
2018-05-07T00:36:56.402Z,215
2018-05-07T00:38:03.312Z,215
2018-05-07T00:39:10.521Z,215
2018-05-07T00:40:17.726Z,214
2018-05-07T00:41:24.658Z,214
2018-05-07T00:42:31.876Z,215
2018-05-07T00:43:39.091Z,214
2018-05-07T00:44:46.294Z,214
2018-05-07T00:45:53.227Z,214
2018-05-07T00:47:00.480Z,214
2018-05-07T00:48:07.697Z,214
2018-05-07T00:49:14.350Z,214
2018-05-07T00:50:21.578Z,214
2018-05-07T00:51:28.781Z,214
2018-05-07T00:52:35.987Z,214
2018-05-07T00:53:43.190Z,214
2018-05-07T00:54:50.399Z,213
2018-05-07T00:55:57.607Z,213
2018-05-07T00:57:04.820Z,213
2018-05-07T00:58:12.029Z,213
2018-05-07T00:59:19.232Z,214
2018-05-07T01:00:26.437Z,214
2018-05-07T01:01:33.366Z,213
2018-05-07T01:02:40.573Z,213
2018-05-07T01:03:47.790Z,213
2018-05-07T01:04:54.993Z,213
2018-05-07T01:06:02.198Z,213
2018-05-07T01:07:09.128Z,213
2018-05-07T01:08:16.362Z,213
2018-05-07T01:09:23.282Z,214
2018-05-07T01:10:30.219Z,213
2018-05-07T01:11:37.427Z,214
2018-05-07T01:12:44.772Z,213
2018-05-07T01:13:52.053Z,213
2018-05-07T01:14:59.255Z,214
2018-05-07T01:16:06.462Z,213
2018-05-07T01:17:13.666Z,213
2018-05-07T01:18:20.875Z,213
2018-05-07T01:19:28.084Z,213
2018-05-07T01:20:35.287Z,213
2018-05-07T01:21:42.221Z,213
2018-05-07T01:22:49.160Z,213
2018-05-07T01:23:56.368Z,213
2018-05-07T01:25:03.299Z,213
2018-05-07T01:26:10.231Z,213
2018-05-07T01:27:17.437Z,213
2018-05-07T01:28:24.652Z,214
2018-05-07T01:29:31.920Z,213
2018-05-07T01:30:39.130Z,214
2018-05-07T01:31:46.065Z,213
2018-05-07T01:32:53.272Z,213
2018-05-07T01:34:00.478Z,213
2018-05-07T01:35:07.681Z,213
2018-05-07T01:36:14.887Z,213
2018-05-07T01:37:22.126Z,212
2018-05-07T01:38:29.335Z,213
2018-05-07T01:39:36.539Z,213
2018-05-07T01:40:43.747Z,212
2018-05-07T01:41:50.951Z,213
2018-05-07T01:42:57.882Z,212
2018-05-07T01:44:05.318Z,212
2018-05-07T01:45:12.507Z,213
2018-05-07T01:46:19.457Z,212
2018-05-07T01:47:26.665Z,213
2018-05-07T01:48:33.871Z,213
2018-05-07T01:49:41.070Z,213
2018-05-07T01:50:48.000Z,213
2018-05-07T01:51:55.219Z,212
2018-05-07T01:53:02.447Z,212
2018-05-07T01:54:09.389Z,212
2018-05-07T01:55:16.317Z,212
2018-05-07T01:56:23.528Z,213
2018-05-07T01:57:30.731Z,212
2018-05-07T01:58:38.152Z,212
2018-05-07T01:59:45.358Z,213
2018-05-07T02:00:52.562Z,212
2018-05-07T02:01:59.770Z,212
2018-05-07T02:03:06.972Z,212
2018-05-07T02:04:14.177Z,212
2018-05-07T02:05:21.385Z,212
2018-05-07T02:06:28.585Z,212
2018-05-07T02:07:35.788Z,212
2018-05-07T02:08:42.995Z,212
2018-05-07T02:09:50.202Z,212
2018-05-07T02:10:57.404Z,212
2018-05-07T02:12:04.632Z,212
2018-05-07T02:13:11.282Z,212
2018-05-07T02:14:18.209Z,212
2018-05-07T02:15:25.413Z,212
2018-05-07T02:16:32.616Z,212
2018-05-07T02:17:39.549Z,211
2018-05-07T02:18:46.755Z,211
2018-05-07T02:19:53.959Z,211
2018-05-07T02:21:01.164Z,211
2018-05-07T02:22:08.113Z,211
2018-05-07T02:23:15.318Z,211
2018-05-07T02:24:22.528Z,211
2018-05-07T02:25:29.733Z,211
2018-05-07T02:26:36.935Z,211
2018-05-07T02:27:43.870Z,211
2018-05-07T02:28:50.800Z,211
2018-05-07T02:29:57.950Z,211
2018-05-07T02:31:05.164Z,211
2018-05-07T02:32:12.371Z,211
2018-05-07T02:33:19.571Z,211
2018-05-07T02:34:26.779Z,211
2018-05-07T02:35:33.988Z,211
2018-05-07T02:36:41.191Z,211
2018-05-07T02:37:48.129Z,211
2018-05-07T02:38:55.452Z,211
2018-05-07T02:40:02.722Z,210
2018-05-07T02:41:09.938Z,210
2018-05-07T02:42:17.138Z,211
2018-05-07T02:43:24.350Z,210
2018-05-07T02:44:31.555Z,210
2018-05-07T02:45:38.760Z,211
2018-05-07T02:46:45.689Z,210
2018-05-07T02:47:52.898Z,210
2018-05-07T02:49:00.109Z,211
2018-05-07T02:50:07.315Z,211
2018-05-07T02:51:14.516Z,211
2018-05-07T02:52:21.721Z,211
2018-05-07T02:53:28.652Z,211
2018-05-07T02:54:35.863Z,211
2018-05-07T02:55:43.073Z,211
2018-05-07T02:56:50.004Z,211
2018-05-07T02:57:57.213Z,211
2018-05-07T02:59:04.432Z,211
2018-05-07T03:00:11.635Z,211
2018-05-07T03:01:18.844Z,211
2018-05-07T03:02:26.046Z,211
2018-05-07T03:03:32.980Z,211
2018-05-07T03:04:40.184Z,211
2018-05-07T03:05:47.391Z,211
2018-05-07T03:06:54.597Z,211
2018-05-07T03:08:01.833Z,211
2018-05-07T03:09:09.049Z,211
2018-05-07T03:10:16.255Z,211
2018-05-07T03:11:23.463Z,211
2018-05-07T03:12:30.395Z,211
2018-05-07T03:13:37.607Z,211
2018-05-07T03:14:44.810Z,211
2018-05-07T03:15:52.013Z,211
2018-05-07T03:16:59.219Z,211
2018-05-07T03:18:06.421Z,211
2018-05-07T03:19:13.378Z,211
2018-05-07T03:20:20.306Z,211
2018-05-07T03:21:27.229Z,211
2018-05-07T03:22:34.431Z,212
2018-05-07T03:23:41.636Z,211
2018-05-07T03:24:49.124Z,211
2018-05-07T03:25:56.409Z,211
2018-05-07T03:27:03.339Z,211
2018-05-07T03:28:10.543Z,211
2018-05-07T03:29:17.749Z,211
2018-05-07T03:30:24.705Z,211
2018-05-07T03:31:31.912Z,211
2018-05-07T03:32:38.841Z,211
2018-05-07T03:33:46.052Z,211
2018-05-07T03:34:53.255Z,211
2018-05-07T03:36:00.462Z,211
2018-05-07T03:37:07.678Z,211
2018-05-07T03:38:14.878Z,212
2018-05-07T03:39:22.080Z,211
2018-05-07T03:40:29.432Z,211
2018-05-07T03:41:36.636Z,211
2018-05-07T03:42:43.847Z,210
2018-05-07T03:43:51.051Z,211
2018-05-07T03:44:57.978Z,211
2018-05-07T03:46:05.183Z,210
2018-05-07T03:47:12.390Z,210
2018-05-07T03:48:19.594Z,210
2018-05-07T03:49:26.797Z,210
2018-05-07T03:50:34.009Z,210
2018-05-07T03:51:41.217Z,210
2018-05-07T03:52:48.419Z,210
2018-05-07T03:53:55.623Z,210
2018-05-07T03:55:02.007Z,210
2018-05-07T03:56:09.215Z,210
2018-05-07T03:57:16.415Z,210
2018-05-07T03:58:23.628Z,210
2018-05-07T03:59:30.828Z,210
2018-05-07T04:00:37.756Z,210
2018-05-07T04:01:44.959Z,210
2018-05-07T04:02:52.164Z,210
2018-05-07T04:03:59.367Z,210
2018-05-07T04:05:06.568Z,210
2018-05-07T04:06:13.772Z,210
2018-05-07T04:07:20.732Z,210
2018-05-07T04:08:27.949Z,210
2018-05-07T04:09:35.151Z,210
2018-05-07T04:10:42.082Z,210
2018-05-07T04:11:49.294Z,210
2018-05-07T04:12:56.498Z,210
2018-05-07T04:14:03.702Z,210
2018-05-07T04:15:10.629Z,210
2018-05-07T04:16:17.835Z,209
2018-05-07T04:17:24.758Z,210
2018-05-07T04:18:31.960Z,210
2018-05-07T04:19:39.164Z,209
2018-05-07T04:20:46.373Z,210
2018-05-07T04:21:53.576Z,210
2018-05-07T04:23:00.510Z,210
2018-05-07T04:24:07.442Z,209
2018-05-07T04:25:14.649Z,209
2018-05-07T04:26:21.855Z,210
2018-05-07T04:27:29.066Z,210
2018-05-07T04:28:36.270Z,209
2018-05-07T04:29:43.395Z,209
2018-05-07T04:30:50.600Z,210
2018-05-07T04:31:57.532Z,209
2018-05-07T04:33:04.462Z,210
2018-05-07T04:34:11.115Z,209
2018-05-07T04:35:18.328Z,209
2018-05-07T04:36:25.267Z,209
2018-05-07T04:37:32.474Z,210
2018-05-07T04:38:39.677Z,209
2018-05-07T04:39:46.879Z,209
2018-05-07T04:40:54.086Z,209
2018-05-07T04:42:01.293Z,209
2018-05-07T04:43:08.687Z,209
2018-05-07T04:44:15.905Z,209
2018-05-07T04:45:23.106Z,209
2018-05-07T04:46:30.310Z,209
2018-05-07T04:47:37.253Z,209
2018-05-07T04:48:44.548Z,209
2018-05-07T04:49:51.757Z,209
2018-05-07T04:50:58.960Z,209
2018-05-07T04:52:05.920Z,208
2018-05-07T04:53:13.123Z,208
2018-05-07T04:54:20.051Z,209
2018-05-07T04:55:27.271Z,208
2018-05-07T04:56:34.230Z,208
2018-05-07T04:57:41.243Z,208
2018-05-07T04:58:48.451Z,208
2018-05-07T04:59:55.708Z,208
2018-05-07T05:01:02.922Z,208
2018-05-07T05:02:10.129Z,208
2018-05-07T05:03:17.331Z,208
2018-05-07T05:04:24.540Z,208
2018-05-07T05:05:31.769Z,208
2018-05-07T05:06:38.973Z,207
2018-05-07T05:07:46.180Z,207
2018-05-07T05:08:53.114Z,207
2018-05-07T05:10:00.350Z,207
2018-05-07T05:11:07.559Z,207
2018-05-07T05:12:14.762Z,207
2018-05-07T05:13:21.966Z,207
2018-05-07T05:14:29.172Z,207
2018-05-07T05:15:36.105Z,206
2018-05-07T05:16:43.310Z,206
2018-05-07T05:17:50.532Z,206
2018-05-07T05:18:57.787Z,206
2018-05-07T05:20:05.039Z,206
2018-05-07T05:21:12.462Z,206
2018-05-07T05:22:19.643Z,206
2018-05-07T05:23:26.849Z,206
2018-05-07T05:24:34.083Z,206
2018-05-07T05:25:41.308Z,206
2018-05-07T05:26:48.513Z,206
2018-05-07T05:27:55.445Z,205
2018-05-07T05:29:02.649Z,205
2018-05-07T05:30:09.861Z,205
2018-05-07T05:31:17.066Z,205
2018-05-07T05:32:24.273Z,205
2018-05-07T05:33:31.494Z,205
2018-05-07T05:34:38.706Z,205
2018-05-07T05:35:45.905Z,205
2018-05-07T05:36:53.112Z,204
2018-05-07T05:38:00.319Z,205
2018-05-07T05:39:07.522Z,204
2018-05-07T05:40:14.462Z,204
2018-05-07T05:41:21.662Z,204
2018-05-07T05:42:28.866Z,204
2018-05-07T05:43:36.292Z,204
2018-05-07T05:44:43.747Z,204
2018-05-07T05:45:50.950Z,204
2018-05-07T05:46:58.157Z,204
2018-05-07T05:48:05.361Z,203
2018-05-07T05:49:12.566Z,203
2018-05-07T05:50:20.002Z,203
2018-05-07T05:51:27.327Z,203
2018-05-07T05:52:34.538Z,203
2018-05-07T05:53:41.745Z,203
2018-05-07T05:54:48.945Z,203
2018-05-07T05:55:56.148Z,203
2018-05-07T05:57:03.358Z,203
2018-05-07T05:58:10.567Z,202
2018-05-07T05:59:17.773Z,202
2018-05-07T06:00:24.977Z,202
2018-05-07T06:01:31.632Z,201
2018-05-07T06:02:38.842Z,202
2018-05-07T06:03:45.919Z,202
2018-05-07T06:04:53.245Z,202
2018-05-07T06:06:00.184Z,201
2018-05-07T06:07:07.390Z,202
2018-05-07T06:08:14.592Z,202
2018-05-07T06:09:21.801Z,202
2018-05-07T06:10:29.007Z,201
2018-05-07T06:11:36.210Z,201
2018-05-07T06:12:43.419Z,201
2018-05-07T06:13:50.351Z,201
2018-05-07T06:14:58.430Z,201
2018-05-07T06:16:05.653Z,201
2018-05-07T06:17:12.918Z,201
2018-05-07T06:18:19.855Z,201
2018-05-07T06:19:26.780Z,200
2018-05-07T06:20:33.999Z,201
2018-05-07T06:21:41.201Z,201
2018-05-07T06:22:48.402Z,200
2018-05-07T06:23:55.630Z,200
2018-05-07T06:25:02.839Z,200
2018-05-07T06:26:09.833Z,200
2018-05-07T06:27:17.034Z,200
2018-05-07T06:28:24.321Z,199
2018-05-07T06:29:31.102Z,199
2018-05-07T06:30:38.039Z,199
2018-05-07T06:31:45.248Z,199
2018-05-07T06:32:52.183Z,200
2018-05-07T06:33:59.404Z,199
2018-05-07T06:35:06.616Z,199
2018-05-07T06:36:13.862Z,199
2018-05-07T06:37:21.130Z,199
2018-05-07T06:38:28.330Z,199
2018-05-07T06:39:35.544Z,199
2018-05-07T06:40:42.480Z,199
2018-05-07T06:41:49.742Z,199
2018-05-07T06:42:56.951Z,199
2018-05-07T06:44:03.884Z,199
2018-05-07T06:45:11.153Z,198
2018-05-07T06:46:18.410Z,198
2018-05-07T06:47:25.616Z,198
2018-05-07T06:48:32.830Z,199
2018-05-07T06:49:40.038Z,198
2018-05-07T06:50:46.974Z,198
2018-05-07T06:51:54.181Z,198
2018-05-07T06:53:01.386Z,198
2018-05-07T06:54:08.593Z,198
2018-05-07T06:55:15.801Z,198
2018-05-07T06:56:22.745Z,199
2018-05-07T06:57:29.687Z,198
2018-05-07T06:58:36.898Z,197
2018-05-07T06:59:43.836Z,198
2018-05-07T07:00:51.043Z,197
2018-05-07T07:01:58.254Z,198
2018-05-07T07:03:05.464Z,198
2018-05-07T07:04:12.675Z,197
2018-05-07T07:05:19.884Z,196
2018-05-07T07:06:26.828Z,197
2018-05-07T07:07:34.067Z,197
2018-05-07T07:08:41.788Z,197
2018-05-07T07:09:49.185Z,198
2018-05-07T07:10:56.118Z,197
2018-05-07T07:12:03.345Z,197
2018-05-07T07:13:10.558Z,197
2018-05-07T07:14:17.764Z,197
2018-05-07T07:15:24.984Z,197
2018-05-07T07:16:32.378Z,197
2018-05-07T07:17:39.608Z,197
2018-05-07T07:18:46.552Z,196
2018-05-07T07:19:53.776Z,196
2018-05-07T07:21:00.990Z,196
2018-05-07T07:22:08.000Z,196
2018-05-07T07:23:15.211Z,197
2018-05-07T07:24:22.422Z,196
2018-05-07T07:25:29.362Z,196
2018-05-07T07:26:36.572Z,196
2018-05-07T07:27:43.792Z,196
2018-05-07T07:28:51.012Z,196
2018-05-07T07:29:57.670Z,196
2018-05-07T07:31:04.877Z,195
2018-05-07T07:32:12.152Z,195
2018-05-07T07:33:19.364Z,196
2018-05-07T07:34:26.585Z,196
2018-05-07T07:35:33.796Z,195
2018-05-07T07:36:41.008Z,195
2018-05-07T07:37:48.222Z,195
2018-05-07T07:38:55.438Z,195
2018-05-07T07:40:02.372Z,195
2018-05-07T07:41:09.586Z,195
2018-05-07T07:42:16.794Z,195
2018-05-07T07:43:24.000Z,195
2018-05-07T07:44:31.213Z,195
2018-05-07T07:45:38.447Z,195
2018-05-07T07:46:45.657Z,195
2018-05-07T07:47:52.871Z,194
2018-05-07T07:49:00.084Z,194
2018-05-07T07:50:07.302Z,194
2018-05-07T07:51:14.521Z,195
2018-05-07T07:52:21.550Z,194
2018-05-07T07:53:28.710Z,194
2018-05-07T07:54:35.927Z,194
2018-05-07T07:55:43.144Z,194
2018-05-07T07:56:50.358Z,195
2018-05-07T07:57:57.301Z,194
2018-05-07T07:59:04.511Z,193
2018-05-07T08:00:11.728Z,193
2018-05-07T08:01:18.940Z,193
2018-05-07T08:02:25.883Z,193
2018-05-07T08:03:32.832Z,194
2018-05-07T08:04:40.050Z,194
2018-05-07T08:05:47.264Z,194
2018-05-07T08:06:54.475Z,194
2018-05-07T08:08:01.691Z,194
2018-05-07T08:09:08.341Z,194
2018-05-07T08:10:15.563Z,193
2018-05-07T08:11:22.770Z,193
2018-05-07T08:12:29.983Z,193
2018-05-07T08:13:37.192Z,193
2018-05-07T08:14:44.402Z,193
2018-05-07T08:15:51.615Z,193
2018-05-07T08:16:58.831Z,192
2018-05-07T08:18:06.039Z,193
2018-05-07T08:19:13.246Z,193
2018-05-07T08:20:20.468Z,193
2018-05-07T08:21:27.680Z,192
2018-05-07T08:22:34.889Z,192
2018-05-07T08:23:42.108Z,192
2018-05-07T08:24:49.580Z,192
2018-05-07T08:25:56.937Z,192
2018-05-07T08:27:04.203Z,192
2018-05-07T08:28:11.145Z,192
2018-05-07T08:29:18.358Z,192
2018-05-07T08:30:25.678Z,191
2018-05-07T08:31:33.078Z,192
2018-05-07T08:32:40.292Z,192
2018-05-07T08:33:47.228Z,191
2018-05-07T08:34:54.441Z,191
2018-05-07T08:36:01.655Z,192
2018-05-07T08:37:08.869Z,191
2018-05-07T08:38:15.813Z,190
2018-05-07T08:39:23.022Z,191
2018-05-07T08:40:30.231Z,191
2018-05-07T08:41:37.445Z,191
2018-05-07T08:42:44.679Z,191
2018-05-07T08:43:51.633Z,191
2018-05-07T08:44:59.054Z,191
2018-05-07T08:46:05.718Z,191
2018-05-07T08:47:12.929Z,191
2018-05-07T08:48:20.138Z,190
2018-05-07T08:49:27.356Z,190
2018-05-07T08:50:34.568Z,190
2018-05-07T08:51:41.793Z,190
2018-05-07T08:52:49.352Z,190
2018-05-07T08:53:56.685Z,189
2018-05-07T08:55:03.900Z,190
2018-05-07T08:56:11.117Z,190
2018-05-07T08:57:18.349Z,190
2018-05-07T08:58:25.281Z,190
2018-05-07T08:59:32.497Z,190
2018-05-07T09:00:39.712Z,189
2018-05-07T09:01:47.048Z,190
2018-05-07T09:02:54.346Z,190
2018-05-07T09:04:01.290Z,190
2018-05-07T09:05:08.529Z,189
2018-05-07T09:06:15.741Z,189
2018-05-07T09:07:22.684Z,190
2018-05-07T09:08:29.896Z,189
2018-05-07T09:09:37.171Z,189
2018-05-07T09:10:44.384Z,189
2018-05-07T09:11:51.601Z,189
2018-05-07T09:12:58.545Z,190
2018-05-07T09:14:05.772Z,190
2018-05-07T09:15:12.991Z,189
2018-05-07T09:16:20.207Z,189
2018-05-07T09:17:27.425Z,189
2018-05-07T09:18:34.648Z,189
2018-05-07T09:19:41.920Z,188
2018-05-07T09:20:49.138Z,188
2018-05-07T09:21:56.352Z,188
2018-05-07T09:23:03.570Z,188
2018-05-07T09:24:10.785Z,188
2018-05-07T09:25:18.001Z,188
2018-05-07T09:26:25.214Z,188
2018-05-07T09:27:32.431Z,189
2018-05-07T09:28:39.654Z,189
2018-05-07T09:29:46.870Z,189
2018-05-07T09:30:54.083Z,189
2018-05-07T09:32:01.301Z,188
2018-05-07T09:33:08.518Z,188
2018-05-07T09:34:15.737Z,187
2018-05-07T09:35:22.950Z,188
2018-05-07T09:36:30.187Z,188
2018-05-07T09:37:37.431Z,188
2018-05-07T09:38:44.362Z,187
2018-05-07T09:39:51.580Z,187
2018-05-07T09:40:58.798Z,189
2018-05-07T09:42:06.015Z,189
2018-05-07T09:43:13.343Z,188
2018-05-07T09:44:20.585Z,188
2018-05-07T09:45:27.807Z,188
2018-05-07T09:46:35.023Z,187
2018-05-07T09:47:42.262Z,187
2018-05-07T09:48:49.202Z,188
2018-05-07T09:49:56.587Z,187
2018-05-07T09:51:03.806Z,187
2018-05-07T09:52:11.018Z,186
2018-05-07T09:53:18.233Z,186
2018-05-07T09:54:25.449Z,186
2018-05-07T09:55:32.682Z,185
2018-05-07T09:56:39.632Z,185
2018-05-07T09:57:46.856Z,183
2018-05-07T09:58:54.075Z,182
2018-05-07T10:00:01.294Z,181
2018-05-07T10:01:08.502Z,181
2018-05-07T10:02:15.713Z,179
2018-05-07T10:03:22.657Z,179
2018-05-07T10:04:29.936Z,179
2018-05-07T10:05:37.154Z,179
2018-05-07T10:06:44.368Z,179
2018-05-07T10:07:51.316Z,178
2018-05-07T10:08:58.529Z,176
2018-05-07T10:10:05.746Z,176
2018-05-07T10:11:12.693Z,176
2018-05-07T10:12:19.943Z,176
2018-05-07T10:13:27.159Z,177
2018-05-07T10:14:34.089Z,177
2018-05-07T10:15:41.040Z,175
2018-05-07T10:16:47.982Z,175
2018-05-07T10:17:55.198Z,174
2018-05-07T10:19:02.427Z,174
2018-05-07T10:20:09.633Z,175
2018-05-07T10:21:16.842Z,175
2018-05-07T10:22:24.063Z,173
2018-05-07T10:23:31.360Z,174
2018-05-07T10:24:38.630Z,174
2018-05-07T10:25:45.852Z,174
2018-05-07T10:26:53.065Z,174
2018-05-07T10:28:00.009Z,173
2018-05-07T10:29:07.220Z,172
2018-05-07T10:30:14.437Z,171
2018-05-07T10:31:21.673Z,171
2018-05-07T10:32:28.617Z,170
2018-05-07T10:33:35.828Z,170
2018-05-07T10:34:43.044Z,169
2018-05-07T10:35:50.260Z,170
2018-05-07T10:36:57.699Z,171
2018-05-07T10:38:04.900Z,171
2018-05-07T10:39:12.140Z,171
2018-05-07T10:40:19.369Z,170
2018-05-07T10:41:26.583Z,170
2018-05-07T10:42:33.797Z,170
2018-05-07T10:43:41.017Z,169
2018-05-07T10:44:48.235Z,172
2018-05-07T10:45:55.453Z,170
2018-05-07T10:47:02.669Z,171
2018-05-07T10:48:09.896Z,171
2018-05-07T10:49:17.396Z,170
2018-05-07T10:50:24.799Z,173
2018-05-07T10:51:32.018Z,171
2018-05-07T10:52:39.234Z,171
2018-05-07T10:53:46.457Z,171
2018-05-07T10:54:53.673Z,171
2018-05-07T10:56:00.885Z,170
2018-05-07T10:57:07.827Z,171
2018-05-07T10:58:15.048Z,171
2018-05-07T10:59:22.004Z,171
2018-05-07T11:00:29.224Z,170
2018-05-07T11:01:36.593Z,170
2018-05-07T11:02:43.903Z,171
2018-05-07T11:03:51.120Z,171
2018-05-07T11:04:58.340Z,171
2018-05-07T11:06:05.558Z,171
2018-05-07T11:07:12.800Z,171
2018-05-07T11:08:20.034Z,170
2018-05-07T11:09:26.992Z,169
2018-05-07T11:10:34.206Z,168
2018-05-07T11:11:41.423Z,168
2018-05-07T11:12:48.647Z,168
2018-05-07T11:13:55.911Z,169
2018-05-07T11:15:03.131Z,169
2018-05-07T11:16:10.350Z,171
2018-05-07T11:17:17.581Z,169
2018-05-07T11:18:24.238Z,170
2018-05-07T11:19:31.449Z,168
2018-05-07T11:20:38.671Z,168
2018-05-07T11:21:45.893Z,167
2018-05-07T11:22:53.110Z,168
2018-05-07T11:24:00.353Z,168
2018-05-07T11:25:07.551Z,169
2018-05-07T11:26:14.772Z,168
2018-05-07T11:27:21.710Z,169
2018-05-07T11:28:28.930Z,169
2018-05-07T11:29:36.146Z,170
2018-05-07T11:30:43.092Z,171
2018-05-07T11:31:50.306Z,169
2018-05-07T11:32:57.581Z,169
2018-05-07T11:34:04.806Z,169
2018-05-07T11:35:11.750Z,169
2018-05-07T11:36:18.967Z,170
2018-05-07T11:37:25.923Z,169
2018-05-07T11:38:32.870Z,167
2018-05-07T11:39:40.086Z,167
2018-05-07T11:40:47.307Z,167
2018-05-07T11:41:54.538Z,167
2018-05-07T11:43:01.753Z,167
2018-05-07T11:44:08.969Z,169
2018-05-07T11:45:15.913Z,167
2018-05-07T11:46:23.129Z,168
2018-05-07T11:47:30.861Z,168
2018-05-07T11:48:38.266Z,170
2018-05-07T11:49:45.504Z,169
2018-05-07T11:50:52.729Z,170
2018-05-07T11:51:59.950Z,170
2018-05-07T11:53:07.200Z,169
2018-05-07T11:54:14.444Z,168
2018-05-07T11:55:21.663Z,170
2018-05-07T11:56:28.889Z,169
2018-05-07T11:57:36.112Z,168
2018-05-07T11:58:43.334Z,169
2018-05-07T11:59:50.280Z,172
2018-05-07T12:00:57.532Z,170
2018-05-07T12:02:04.748Z,170
2018-05-07T12:03:12.030Z,168
2018-05-07T12:04:18.985Z,167
2018-05-07T12:05:26.203Z,168
2018-05-07T12:06:33.417Z,167
2018-05-07T12:07:40.662Z,169
2018-05-07T12:08:47.874Z,170
2018-05-07T12:09:55.123Z,169
2018-05-07T12:11:02.335Z,167
2018-05-07T12:12:09.558Z,168
2018-05-07T12:13:16.809Z,170
2018-05-07T12:14:24.025Z,171
2018-05-07T12:15:31.248Z,172
2018-05-07T12:16:38.468Z,174
2018-05-07T12:17:45.684Z,171
2018-05-07T12:18:52.907Z,170
2018-05-07T12:20:00.131Z,169
2018-05-07T12:21:07.351Z,168
2018-05-07T12:22:14.569Z,167
2018-05-07T12:23:22.068Z,170
2018-05-07T12:24:29.302Z,171
2018-05-07T12:25:36.270Z,169
2018-05-07T12:26:43.488Z,168
2018-05-07T12:27:50.714Z,169
2018-05-07T22:00:06.567Z,215
2018-05-07T22:01:13.774Z,216
2018-05-07T22:02:20.766Z,215
2018-05-07T22:03:27.976Z,216
2018-05-07T22:04:35.181Z,216
2018-05-07T22:05:42.397Z,216
2018-05-07T22:06:49.319Z,215
2018-05-07T22:07:56.631Z,215
2018-05-07T22:09:03.683Z,215
2018-05-07T22:10:10.891Z,215
2018-05-07T22:11:18.101Z,215
2018-05-07T22:12:25.585Z,215
2018-05-07T22:13:33.031Z,215
2018-05-07T22:14:40.239Z,215
2018-05-07T22:15:47.442Z,215
2018-05-07T22:16:54.650Z,215
2018-05-07T22:18:01.858Z,215
2018-05-07T22:19:09.067Z,215
2018-05-07T22:20:16.276Z,215
2018-05-07T22:21:23.490Z,215
2018-05-07T22:22:30.698Z,216
2018-05-07T22:23:37.636Z,216
2018-05-07T22:24:44.575Z,216
2018-05-07T22:25:51.791Z,216
2018-05-07T22:26:58.728Z,215
2018-05-07T22:28:05.938Z,215
2018-05-07T22:29:13.148Z,215
2018-05-07T22:30:19.810Z,215
2018-05-07T22:31:26.737Z,215
2018-05-07T22:32:33.678Z,215
2018-05-07T22:33:40.883Z,216
2018-05-07T22:34:47.809Z,216
2018-05-07T22:35:55.026Z,216
2018-05-07T22:37:01.956Z,216
2018-05-07T22:38:08.889Z,216
2018-05-07T22:39:16.097Z,216
2018-05-07T22:40:23.312Z,216
2018-05-07T22:41:30.519Z,216
2018-05-07T22:42:37.733Z,216
2018-05-07T22:43:44.943Z,216
2018-05-07T22:44:52.157Z,216
2018-05-07T22:45:59.383Z,216
2018-05-07T22:47:06.319Z,216
2018-05-07T22:48:13.527Z,216
2018-05-07T22:49:20.462Z,215
2018-05-07T22:50:27.400Z,215
2018-05-07T22:51:34.639Z,215
2018-05-07T22:52:41.858Z,215
2018-05-07T22:53:48.790Z,215
2018-05-07T22:54:56.007Z,215
2018-05-07T22:56:03.215Z,215
2018-05-07T22:57:10.461Z,216
2018-05-07T22:58:17.670Z,216
2018-05-07T22:59:24.879Z,215
2018-05-07T23:00:32.090Z,215
2018-05-07T23:01:39.021Z,215
2018-05-07T23:02:46.225Z,215
2018-05-07T23:03:53.437Z,215
2018-05-07T23:05:00.650Z,215
2018-05-07T23:06:07.864Z,215
2018-05-07T23:07:15.071Z,215
2018-05-07T23:08:22.285Z,215
2018-05-07T23:09:29.227Z,215
2018-05-07T23:10:36.430Z,215
2018-05-07T23:11:43.638Z,215
2018-05-07T23:12:50.849Z,215
2018-05-07T23:13:58.055Z,215
2018-05-07T23:15:05.263Z,215
2018-05-07T23:16:12.470Z,216
2018-05-07T23:17:19.685Z,215
2018-05-07T23:18:27.046Z,215
2018-05-07T23:19:34.256Z,216
2018-05-07T23:20:41.456Z,216
2018-05-07T23:21:48.669Z,216
2018-05-07T23:22:55.874Z,215
2018-05-07T23:24:03.094Z,215
2018-05-07T23:25:10.295Z,216
2018-05-07T23:26:17.519Z,215
2018-05-07T23:27:24.732Z,215
2018-05-07T23:28:31.948Z,216
2018-05-07T23:29:38.872Z,216
2018-05-07T23:30:46.151Z,216
2018-05-07T23:31:53.360Z,215
2018-05-07T23:33:00.564Z,215
2018-05-07T23:34:07.773Z,215
2018-05-07T23:35:14.981Z,216
2018-05-07T23:36:22.189Z,216
2018-05-07T23:37:29.115Z,216
2018-05-07T23:38:36.042Z,216
2018-05-07T23:39:43.255Z,216
2018-05-07T23:40:50.465Z,216
2018-05-07T23:41:57.416Z,216
2018-05-07T23:43:04.605Z,216
2018-05-07T23:44:11.819Z,216
2018-05-07T23:45:19.255Z,216
2018-05-07T23:46:26.188Z,216
2018-05-07T23:47:33.399Z,216
2018-05-07T23:48:40.327Z,217
2018-05-07T23:49:47.553Z,216
2018-05-07T23:50:54.750Z,216
2018-05-07T23:52:01.685Z,216
2018-05-07T23:53:08.894Z,216
2018-05-07T23:54:16.097Z,216
2018-05-07T23:55:23.366Z,216
2018-05-07T23:56:30.562Z,216
2018-05-07T23:57:37.768Z,215
2018-05-07T23:58:44.705Z,215
2018-05-07T23:59:51.912Z,216
